Time;durP1;ratioP1;P1;durP2;ratioP2;P2;SDS_P1;SDS_P2;PMS_P1;PMS_P2;Temp;Humidity;BMP_temperature;BMP_pressure;BME280_temperature;BME280_humidity;BME280_pressure;Samples;Min_cycle;Max_cycle;Signal;HPM_P1;HPM_P2
2021/11/23 00:01:49;;;;;;;15.57;5.93;;;4.20;99.90;;;;;;5053686;28;20111;-77
2021/11/23 00:04:15;;;;;;;13.75;5.80;;;4.10;99.90;;;;;;5052119;28;20404;-76
2021/11/23 00:06:41;;;;;;;9.18;5.57;;;4.10;99.90;;;;;;5053861;28;20029;-77
2021/11/23 00:09:06;;;;;;;8.90;5.25;;;4.10;99.90;;;;;;5053116;28;20028;-77
2021/11/23 00:11:32;;;;;;;13.55;6.07;;;4.10;99.90;;;;;;5053103;28;20033;-77
2021/11/23 00:13:57;;;;;;;10.40;5.15;;;4.10;99.90;;;;;;5053572;28;20519;-76
2021/11/23 00:16:23;;;;;;;12.00;5.25;;;4.10;99.90;;;;;;5052519;28;20432;-77
2021/11/23 00:18:49;;;;;;;14.88;5.97;;;4.00;99.90;;;;;;5053228;28;20086;-77
2021/11/23 00:21:15;;;;;;;10.55;6.35;;;4.00;99.90;;;;;;5052753;28;20028;-76
2021/11/23 00:23:42;;;;;;;8.68;4.50;;;4.00;99.90;;;;;;5053301;28;20029;-77
2021/11/23 00:26:07;;;;;;;6.60;4.45;;;3.90;99.90;;;;;;5056174;28;20044;-77
2021/11/23 00:28:33;;;;;;;5.78;4.38;;;3.90;99.90;;;;;;5053830;28;20480;-76
2021/11/23 00:30:58;;;;;;;10.40;6.47;;;3.90;99.90;;;;;;5052436;28;20021;-76
2021/11/23 00:33:25;;;;;;;6.28;3.80;;;3.90;99.90;;;;;;5053410;28;20082;-77
2021/11/23 00:35:51;;;;;;;7.95;4.15;;;3.90;99.90;;;;;;5053452;28;20032;-76
2021/11/23 00:38:17;;;;;;;15.13;5.10;;;4.00;99.90;;;;;;5051697;28;20025;-76
2021/11/23 00:40:44;;;;;;;9.15;4.38;;;4.00;99.90;;;;;;5054163;28;20025;-77
2021/11/23 00:43:09;;;;;;;13.15;5.40;;;4.10;99.90;;;;;;5052777;28;20028;-77
2021/11/23 00:45:36;;;;;;;13.05;4.40;;;4.10;99.90;;;;;;5051966;28;20468;-76
2021/11/23 00:48:03;;;;;;;12.82;6.28;;;4.20;99.90;;;;;;5052254;28;20101;-75
2021/11/23 00:50:30;;;;;;;8.48;4.25;;;4.30;99.90;;;;;;5053084;28;20369;-76
2021/11/23 00:52:56;;;;;;;18.20;5.68;;;4.40;99.90;;;;;;5052498;28;20033;-76
2021/11/23 00:55:21;;;;;;;8.40;4.55;;;4.40;99.90;;;;;;5053008;28;20112;-76
2021/11/23 00:57:50;;;;;;;13.00;5.57;;;4.50;99.90;;;;;;5052482;28;20055;-77
2021/11/23 01:00:16;;;;;;;9.18;4.35;;;4.50;99.90;;;;;;5051391;28;20025;-77
2021/11/23 01:02:42;;;;;;;8.25;4.88;;;4.50;99.90;;;;;;5052953;28;20491;-77
2021/11/23 01:05:09;;;;;;;15.05;4.88;;;4.50;99.90;;;;;;5052038;28;20041;-77
2021/11/23 01:07:35;;;;;;;7.03;4.18;;;4.50;99.90;;;;;;5050609;28;20037;-76
2021/11/23 01:10:02;;;;;;;6.10;4.22;;;4.50;99.90;;;;;;5052404;28;20025;-76
2021/11/23 01:12:28;;;;;;;5.47;3.83;;;4.50;99.90;;;;;;5052686;28;20040;-77
2021/11/23 01:14:53;;;;;;;8.48;4.40;;;4.60;99.90;;;;;;5050787;28;20148;-76
2021/11/23 01:17:19;;;;;;;8.35;4.20;;;4.60;99.90;;;;;;5051920;28;20032;-76
2021/11/23 01:19:45;;;;;;;8.65;4.60;;;4.60;99.90;;;;;;5051345;28;20028;-76
2021/11/23 01:22:11;;;;;;;12.02;6.20;;;4.60;99.90;;;;;;5051152;28;20389;-76
2021/11/23 01:24:37;;;;;;;12.02;4.28;;;4.60;99.90;;;;;;5051633;28;20025;-76
2021/11/23 01:27:03;;;;;;;10.70;4.63;;;4.70;99.90;;;;;;5050401;28;20572;-76
2021/11/23 01:29:29;;;;;;;9.98;4.85;;;4.80;99.90;;;;;;5051257;28;20025;-76
2021/11/23 01:31:54;;;;;;;13.43;4.47;;;4.80;99.90;;;;;;5050904;28;20036;-77
2021/11/23 01:34:21;;;;;;;12.35;4.43;;;4.90;99.90;;;;;;5050481;28;20373;-77
2021/11/23 01:36:53;;;;;;;8.52;4.50;;;4.80;99.90;;;;;;5051355;28;20033;-76
2021/11/23 01:39:19;;;;;;;8.80;5.15;;;4.80;99.90;;;;;;5051086;28;20021;-77
2021/11/23 01:41:45;;;;;;;11.85;4.35;;;4.90;99.90;;;;;;5050498;28;20021;-76
2021/11/23 01:44:10;;;;;;;9.73;4.68;;;4.90;99.90;;;;;;5050774;28;20098;-77
2021/11/23 01:46:37;;;;;;;8.75;4.50;;;4.90;99.90;;;;;;5050893;28;20061;-77
2021/11/23 01:49:03;;;;;;;10.40;4.60;;;4.90;99.90;;;;;;5050448;28;20366;-77
2021/11/23 01:51:29;;;;;;;9.57;4.22;;;4.90;99.90;;;;;;5055020;28;20090;-76
2021/11/23 01:53:55;;;;;;;11.30;4.53;;;4.80;99.90;;;;;;5054684;28;20025;-76
2021/11/23 01:56:21;;;;;;;9.90;4.60;;;4.90;99.90;;;;;;5053902;28;20021;-76
2021/11/23 01:58:49;;;;;;;7.97;4.90;;;4.90;99.90;;;;;;5054573;28;20075;-77
2021/11/23 02:01:15;;;;;;;6.85;4.95;;;4.90;99.90;;;;;;5054977;28;20032;-76
2021/11/23 02:03:41;;;;;;;8.43;4.20;;;4.90;99.90;;;;;;5055097;28;20017;-78
2021/11/23 02:06:08;;;;;;;9.82;4.10;;;5.00;99.90;;;;;;5018663;28;1048343;-77
2021/11/23 02:08:34;;;;;;;11.80;4.60;;;4.90;99.90;;;;;;5056195;28;20033;-77
2021/11/23 02:11:00;;;;;;;8.82;4.50;;;5.00;99.90;;;;;;5055726;28;20029;-77
2021/11/23 02:13:29;;;;;;;6.35;3.45;;;5.00;99.90;;;;;;5056096;28;20059;-77
2021/11/23 02:15:56;;;;;;;9.88;4.00;;;5.00;99.90;;;;;;5055236;28;20028;-77
2021/11/23 02:18:23;;;;;;;10.02;4.95;;;5.00;99.90;;;;;;5056349;28;20036;-77
2021/11/23 02:20:50;;;;;;;10.27;3.65;;;5.00;99.90;;;;;;5055461;28;20017;-78
2021/11/23 02:23:17;;;;;;;9.05;3.92;;;5.00;99.90;;;;;;5054518;28;20073;-77
2021/11/23 02:25:43;;;;;;;6.72;3.45;;;5.10;99.90;;;;;;5055242;28;20025;-77
2021/11/23 02:28:11;;;;;;;7.97;3.67;;;5.10;99.90;;;;;;5054997;28;20484;-76
2021/11/23 02:30:46;;;;;;;8.95;3.80;;;5.20;99.90;;;;;;5054511;28;20033;-76
2021/11/23 02:33:17;;;;;;;10.60;3.53;;;5.10;99.90;;;;;;5056088;28;20116;-77
2021/11/23 02:35:43;;;;;;;10.60;3.60;;;5.20;99.90;;;;;;5055743;28;20025;-77
2021/11/23 02:38:09;;;;;;;9.93;3.95;;;5.20;99.90;;;;;;5054331;28;20025;-76
2021/11/23 02:40:34;;;;;;;7.45;4.00;;;5.30;99.90;;;;;;5070437;28;20028;-76
2021/11/23 02:43:00;;;;;;;7.18;3.50;;;5.30;99.90;;;;;;5056235;28;20081;-76
2021/11/23 02:45:28;;;;;;;5.82;3.35;;;5.30;99.90;;;;;;5054465;28;20136;-76
2021/11/23 02:47:55;;;;;;;10.35;4.97;;;5.40;99.90;;;;;;5055298;28;20554;-76
2021/11/23 02:50:23;;;;;;;4.13;3.15;;;5.40;99.90;;;;;;5055201;28;20029;-76
2021/11/23 02:52:50;;;;;;;9.25;3.63;;;5.40;99.90;;;;;;5054246;28;20033;-76
2021/11/23 02:55:17;;;;;;;5.57;3.65;;;5.50;99.90;;;;;;5054602;28;20017;-76
2021/11/23 02:57:43;;;;;;;7.45;3.40;;;5.50;99.90;;;;;;5055045;28;20029;-77
2021/11/23 03:00:17;;;;;;;6.55;3.17;;;5.40;99.90;;;;;;5053248;28;20576;-76
2021/11/23 03:02:44;;;;;;;5.18;3.17;;;5.40;99.90;;;;;;5054662;28;20035;-77
2021/11/23 03:05:10;;;;;;;5.72;3.05;;;5.50;99.90;;;;;;5053486;28;20041;-76
2021/11/23 03:07:36;;;;;;;7.82;3.10;;;5.50;99.90;;;;;;5054395;28;20553;-75
2021/11/23 03:10:04;;;;;;;7.00;3.35;;;5.50;99.90;;;;;;5054201;28;20058;-77
2021/11/23 03:12:30;;;;;;;11.82;3.58;;;5.50;99.90;;;;;;5053875;28;20044;-77
2021/11/23 03:14:55;;;;;;;10.00;3.67;;;5.50;99.90;;;;;;5054805;28;20393;-77
2021/11/23 03:17:21;;;;;;;4.80;3.10;;;5.60;99.90;;;;;;5054632;28;20476;-77
2021/11/23 03:19:49;;;;;;;8.75;3.45;;;5.60;99.90;;;;;;5054665;28;20021;-76
2021/11/23 03:22:15;;;;;;;4.00;2.85;;;5.60;99.90;;;;;;5056396;28;20035;-77
2021/11/23 03:24:41;;;;;;;4.47;2.97;;;5.60;99.90;;;;;;5055304;28;20075;-76
2021/11/23 03:27:08;;;;;;;10.05;3.28;;;5.60;99.90;;;;;;5053722;28;20029;-77
2021/11/23 03:29:35;;;;;;;5.03;3.45;;;5.60;99.90;;;;;;5054707;28;20032;-77
2021/11/23 03:32:01;;;;;;;6.25;3.10;;;5.60;99.90;;;;;;5054272;28;20032;-78
2021/11/23 03:34:31;;;;;;;8.95;3.10;;;5.60;99.90;;;;;;5054086;28;20075;-77
2021/11/23 03:36:57;;;;;;;4.20;3.03;;;5.60;99.90;;;;;;5056591;28;20474;-77
2021/11/23 03:39:22;;;;;;;8.45;3.47;;;5.60;99.90;;;;;;5055204;28;20059;-76
2021/11/23 03:41:48;;;;;;;3.90;2.83;;;5.70;99.90;;;;;;5054978;28;20032;-76
2021/11/23 03:44:13;;;;;;;6.75;3.70;;;5.70;99.90;;;;;;5054127;28;20025;-77
2021/11/23 03:46:39;;;;;;;8.20;3.50;;;5.60;99.90;;;;;;5054627;28;20078;-77
2021/11/23 03:49:05;;;;;;;5.78;2.88;;;5.60;99.90;;;;;;5053215;28;20468;-77
2021/11/23 03:51:31;;;;;;;3.70;2.75;;;5.60;99.90;;;;;;5054098;28;20025;-76
2021/11/23 03:53:56;;;;;;;3.67;2.42;;;5.70;99.90;;;;;;5054073;28;20029;-77
2021/11/23 03:56:22;;;;;;;5.15;2.40;;;5.70;99.90;;;;;;5053416;28;20024;-76
2021/11/23 03:58:48;;;;;;;7.00;3.45;;;5.70;99.90;;;;;;5053780;28;20021;-77
2021/11/23 04:01:14;;;;;;;6.90;3.50;;;5.80;99.90;;;;;;5054086;28;20116;-76
2021/11/23 04:03:39;;;;;;;5.82;3.35;;;5.90;99.90;;;;;;5053415;28;20579;-76
2021/11/23 04:06:05;;;;;;;5.72;2.92;;;5.90;99.90;;;;;;5053695;28;20464;-77
2021/11/23 04:08:32;;;;;;;6.03;2.78;;;5.90;99.90;;;;;;5053939;28;20039;-77
2021/11/23 04:10:58;;;;;;;8.43;3.10;;;5.90;99.90;;;;;;5053654;28;20025;-76
2021/11/23 04:13:24;;;;;;;4.05;2.25;;;5.90;99.90;;;;;;5052530;28;20473;-76
2021/11/23 04:15:49;;;;;;;5.05;2.67;;;5.90;99.90;;;;;;5053302;28;20509;-77
2021/11/23 04:18:15;;;;;;;9.02;2.58;;;5.90;99.90;;;;;;5053465;28;20499;-77
2021/11/23 04:20:41;;;;;;;5.25;2.50;;;7.10;99.90;;;;;;5053622;28;20021;-76
2021/11/23 04:23:07;;;;;;;6.05;2.72;;;5.90;99.90;;;;;;5052488;28;20446;-77
2021/11/23 04:25:33;;;;;;;5.30;2.53;;;5.90;99.90;;;;;;5052796;28;20124;-76
2021/11/23 04:27:59;;;;;;;9.05;3.47;;;6.00;99.90;;;;;;5053763;28;20060;-76
2021/11/23 04:30:25;;;;;;;3.15;2.63;;;6.00;99.90;;;;;;5053213;28;20051;-76
2021/11/23 04:32:51;;;;;;;5.70;2.65;;;6.10;99.90;;;;;;5053101;28;20120;-76
2021/11/23 04:35:19;;;;;;;4.10;2.50;;;6.20;99.90;;;;;;5052943;28;20421;-76
2021/11/23 04:37:45;;;;;;;6.85;2.60;;;6.10;99.90;;;;;;5052702;28;20104;-77
2021/11/23 04:40:13;;;;;;;5.15;2.70;;;6.20;99.90;;;;;;5053067;28;20496;-77
2021/11/23 04:42:40;;;;;;;4.20;2.17;;;6.20;99.90;;;;;;5052820;28;20029;-76
2021/11/23 04:45:08;;;;;;;4.60;2.78;;;6.20;99.90;;;;;;5051638;28;20033;-75
2021/11/23 04:47:34;;;;;;;3.80;2.30;;;6.20;99.90;;;;;;5052456;28;20033;-76
2021/11/23 04:50:00;;;;;;;3.67;2.20;;;6.30;99.90;;;;;;5053389;28;20776;-77
2021/11/23 04:52:26;;;;;;;6.13;2.85;;;6.30;99.90;;;;;;5051773;28;20116;-76
2021/11/23 04:54:51;;;;;;;4.40;2.55;;;6.30;99.90;;;;;;5052219;28;20013;-76
2021/11/23 04:57:18;;;;;;;6.65;2.45;;;6.30;99.90;;;;;;5052124;28;20040;-76
2021/11/23 04:59:44;;;;;;;5.63;2.28;;;6.40;99.90;;;;;;5051451;28;20107;-74
2021/11/23 05:02:09;;;;;;;6.75;2.08;;;6.40;99.90;;;;;;5052357;28;20055;-75
2021/11/23 05:04:35;;;;;;;2.20;1.90;;;6.30;99.90;;;;;;5051963;28;20017;-75
2021/11/23 05:07:01;;;;;;;6.10;2.38;;;6.40;99.90;;;;;;5051887;28;20103;-74
2021/11/23 05:09:27;;;;;;;3.40;2.10;;;6.40;99.90;;;;;;5052301;28;20481;-75
2021/11/23 05:11:53;;;;;;;6.47;2.40;;;6.40;99.90;;;;;;5051072;28;20053;-76
2021/11/23 05:14:19;;;;;;;3.08;2.17;;;6.30;99.90;;;;;;5052115;28;20021;-75
2021/11/23 05:16:44;;;;;;;4.97;1.80;;;6.30;99.90;;;;;;5052102;28;20074;-75
2021/11/23 05:19:10;;;;;;;12.82;2.78;;;6.40;99.90;;;;;;5050889;28;20063;-75
2021/11/23 05:21:39;;;;;;;5.55;2.20;;;6.30;99.90;;;;;;5052267;28;20031;-76
2021/11/23 05:24:06;;;;;;;7.70;2.70;;;6.30;99.90;;;;;;5051721;28;20071;-77
2021/11/23 05:26:32;;;;;;;6.32;2.33;;;6.40;99.90;;;;;;5051750;28;20515;-75
2021/11/23 05:28:58;;;;;;;7.35;2.35;;;6.40;99.90;;;;;;5051676;28;20033;-75
2021/11/23 05:31:23;;;;;;;11.02;3.25;;;6.40;99.90;;;;;;5051850;28;20028;-76
2021/11/23 05:33:49;;;;;;;9.32;2.65;;;6.50;99.90;;;;;;5051498;28;20028;-75
2021/11/23 05:36:17;;;;;;;5.95;2.20;;;6.50;99.90;;;;;;5051775;28;20372;-75
2021/11/23 05:38:43;;;;;;;5.18;2.22;;;6.50;99.90;;;;;;5052124;28;20112;-75
2021/11/23 05:41:09;;;;;;;4.75;2.58;;;6.60;99.90;;;;;;5050921;28;20107;-76
2021/11/23 05:43:34;;;;;;;6.78;2.08;;;6.60;99.90;;;;;;5051843;28;20021;-76
2021/11/23 05:46:00;;;;;;;5.20;2.00;;;6.50;99.90;;;;;;5051411;28;20056;-76
2021/11/23 05:48:25;;;;;;;7.50;2.28;;;6.50;99.90;;;;;;5051093;28;20032;-76
2021/11/23 05:50:51;;;;;;;7.78;2.50;;;6.60;99.90;;;;;;5051765;28;20036;-75
2021/11/23 05:53:16;;;;;;;2.65;2.22;;;6.60;99.90;;;;;;5051790;28;20029;-76
2021/11/23 05:55:42;;;;;;;7.35;2.20;;;6.60;99.90;;;;;;5051107;28;20021;-76
2021/11/23 05:58:08;;;;;;;7.57;2.35;;;6.60;99.90;;;;;;5051457;28;20029;-77
2021/11/23 06:00:34;;;;;;;6.38;2.17;;;6.60;99.90;;;;;;5053073;28;20495;-75
2021/11/23 06:03:00;;;;;;;4.05;2.08;;;6.50;99.90;;;;;;5052777;28;20067;-77
2021/11/23 06:05:27;;;;;;;6.03;2.60;;;6.60;99.90;;;;;;5052115;28;20049;-75
2021/11/23 06:07:53;;;;;;;9.98;2.78;;;6.60;99.90;;;;;;5053241;28;20051;-76
2021/11/23 06:10:18;;;;;;;8.27;3.67;;;6.60;99.90;;;;;;5051035;28;20509;-75
2021/11/23 06:12:44;;;;;;;7.50;2.38;;;6.60;99.90;;;;;;5051716;28;20037;-75
2021/11/23 06:15:11;;;;;;;4.53;2.28;;;6.70;99.90;;;;;;5036488;28;20025;-75
2021/11/23 06:17:37;;;;;;;11.35;2.53;;;6.60;99.90;;;;;;5037089;28;20049;-75
2021/11/23 06:20:04;;;;;;;3.80;2.00;;;6.60;99.90;;;;;;5036054;28;20104;-75
2021/11/23 06:22:34;;;;;;;4.97;2.20;;;6.60;99.90;;;;;;5037643;28;20029;-75
2021/11/23 06:25:00;;;;;;;4.55;2.63;;;6.70;99.90;;;;;;5030676;28;20030;-74
2021/11/23 06:27:26;;;;;;;10.68;2.35;;;6.70;99.90;;;;;;5032415;28;20034;-75
2021/11/23 06:29:51;;;;;;;6.25;2.45;;;6.70;99.90;;;;;;5031647;28;20385;-74
2021/11/23 06:32:17;;;;;;;9.00;2.72;;;6.70;99.90;;;;;;5034953;28;20029;-77
2021/11/23 06:34:43;;;;;;;7.32;2.95;;;6.70;99.90;;;;;;5033403;28;20064;-76
2021/11/23 06:37:09;;;;;;;4.63;2.35;;;6.70;99.90;;;;;;5034754;28;20094;-77
2021/11/23 06:39:34;;;;;;;5.88;2.45;;;6.80;99.90;;;;;;5037579;28;20478;-75
2021/11/23 06:42:00;;;;;;;6.07;2.60;;;6.70;99.90;;;;;;5036401;28;20025;-74
2021/11/23 06:44:25;;;;;;;4.18;2.50;;;6.70;99.90;;;;;;5035056;28;20057;-76
2021/11/23 06:46:51;;;;;;;15.85;3.08;;;6.70;99.90;;;;;;5050386;28;20049;-76
2021/11/23 06:49:16;;;;;;;6.60;2.40;;;6.70;99.90;;;;;;5053518;28;20236;-77
2021/11/23 06:51:42;;;;;;;10.48;2.05;;;6.70;99.90;;;;;;5053355;28;20028;-75
2021/11/23 06:54:07;;;;;;;9.23;2.08;;;6.70;99.90;;;;;;5053687;28;20418;-75
2021/11/23 06:56:33;;;;;;;6.20;2.50;;;6.70;99.90;;;;;;5053725;28;20025;-76
2021/11/23 06:59:00;;;;;;;4.10;2.40;;;6.70;99.90;;;;;;5052778;28;20492;-76
2021/11/23 07:01:26;;;;;;;2.83;2.20;;;6.70;99.90;;;;;;5054176;28;20025;-76
2021/11/23 07:03:51;;;;;;;5.95;1.92;;;6.80;99.90;;;;;;5053898;28;20032;-75
2021/11/23 07:06:17;;;;;;;5.45;2.30;;;6.80;99.90;;;;;;5052252;28;20375;-77
2021/11/23 07:08:43;;;;;;;7.63;2.10;;;6.80;99.90;;;;;;5053946;28;20025;-75
2021/11/23 07:11:09;;;;;;;16.25;4.13;;;6.90;99.90;;;;;;5052543;28;20056;-74
2021/11/23 07:13:35;;;;;;;7.82;2.20;;;7.00;99.90;;;;;;5050809;28;20040;-77
2021/11/23 07:16:02;;;;;;;3.97;1.67;;;7.00;99.90;;;;;;5053330;28;20393;-75
2021/11/23 07:18:27;;;;;;;10.18;2.25;;;7.00;99.90;;;;;;5052942;28;20469;-76
2021/11/23 07:20:54;;;;;;;4.90;2.25;;;7.00;99.90;;;;;;5051957;28;20029;-76
2021/11/23 07:23:20;;;;;;;8.75;2.30;;;7.10;99.90;;;;;;5053240;28;20605;-75
2021/11/23 07:25:46;;;;;;;5.32;2.25;;;7.10;99.90;;;;;;5052965;28;20017;-76
2021/11/23 07:28:11;;;;;;;11.90;2.15;;;7.10;99.90;;;;;;5053337;28;20024;-74
2021/11/23 07:30:38;;;;;;;4.50;1.83;;;7.10;99.90;;;;;;5052982;28;20404;-75
2021/11/23 07:33:04;;;;;;;8.45;2.38;;;7.10;99.90;;;;;;5052328;28;20045;-75
2021/11/23 07:35:30;;;;;;;7.20;2.40;;;7.10;99.90;;;;;;5052722;28;20029;-75
2021/11/23 07:37:55;;;;;;;5.50;2.28;;;7.10;99.90;;;;;;5052589;28;20538;-75
2021/11/23 07:40:21;;;;;;;4.28;1.70;;;7.10;99.90;;;;;;5052003;28;20029;-75
2021/11/23 07:42:47;;;;;;;8.35;2.28;;;7.10;99.90;;;;;;5052968;28;20036;-75
2021/11/23 07:45:13;;;;;;;4.97;2.17;;;7.10;99.90;;;;;;5052004;28;20017;-76
2021/11/23 07:47:38;;;;;;;4.32;2.45;;;7.10;99.90;;;;;;5048664;28;20036;-78
2021/11/23 07:50:05;;;;;;;3.53;1.98;;;7.20;99.90;;;;;;5051756;28;20017;-78
2021/11/23 07:52:31;;;;;;;3.33;1.73;;;7.20;99.90;;;;;;5050993;28;20047;-77
2021/11/23 07:54:58;;;;;;;5.72;1.70;;;7.20;99.90;;;;;;5051674;28;20102;-75
2021/11/23 07:57:23;;;;;;;5.38;3.67;;;7.30;99.90;;;;;;5053014;28;20037;-77
2021/11/23 07:59:49;;;;;;;8.98;3.67;;;7.30;99.90;;;;;;5050232;28;20028;-77
2021/11/23 08:02:15;;;;;;;7.07;4.07;;;7.30;99.90;;;;;;5051725;28;20431;-78
2021/11/23 08:04:40;;;;;;;8.38;3.65;;;7.30;99.90;;;;;;5052961;28;20016;-77
2021/11/23 08:07:06;;;;;;;4.32;2.85;;;7.10;99.90;;;;;;5051989;28;20059;-77
2021/11/23 08:09:32;;;;;;;5.85;3.17;;;7.30;99.90;;;;;;5052524;28;20377;-78
2021/11/23 08:11:57;;;;;;;4.28;3.10;;;7.40;99.90;;;;;;5053088;28;20078;-76
2021/11/23 08:14:29;;;;;;;5.30;2.80;;;7.40;99.90;;;;;;5053319;28;20140;-76
2021/11/23 08:16:56;;;;;;;6.15;2.83;;;7.50;99.90;;;;;;5052673;28;20029;-79
2021/11/23 08:19:22;;;;;;;3.17;2.65;;;7.50;99.90;;;;;;5054324;28;20031;-79
2021/11/23 08:21:48;;;;;;;7.65;2.42;;;7.60;99.90;;;;;;5053154;28;20029;-77
2021/11/23 08:24:14;;;;;;;4.35;2.50;;;7.60;99.90;;;;;;5053893;28;20074;-76
2021/11/23 08:26:39;;;;;;;2.10;1.90;;;7.70;99.90;;;;;;5053688;28;20033;-77
2021/11/23 08:29:05;;;;;;;6.22;3.42;;;7.70;99.90;;;;;;5052780;28;20017;-77
2021/11/23 08:31:31;;;;;;;6.18;3.80;;;7.80;99.90;;;;;;5054393;28;20024;-76
2021/11/23 08:34:03;;;;;;;3.53;2.95;;;7.80;99.90;;;;;;5053814;28;20044;-77
2021/11/23 08:36:29;;;;;;;4.50;2.47;;;7.90;99.90;;;;;;5053220;28;20077;-76
2021/11/23 08:38:55;;;;;;;5.35;2.60;;;7.90;99.90;;;;;;5053001;28;20069;-76
2021/11/23 08:41:20;;;;;;;7.93;2.60;;;8.00;99.90;;;;;;5053568;28;20118;-76
2021/11/23 08:43:46;;;;;;;7.45;2.42;;;8.00;99.90;;;;;;5048093;28;20044;-78
2021/11/23 08:46:11;;;;;;;4.00;2.92;;;8.10;99.90;;;;;;5051231;28;20119;-77
2021/11/23 08:48:37;;;;;;;8.00;2.97;;;8.10;99.90;;;;;;5051319;28;20029;-77
2021/11/23 08:51:05;;;;;;;5.13;2.72;;;8.10;99.90;;;;;;5050133;28;20378;-77
2021/11/23 08:53:31;;;;;;;8.02;3.25;;;8.20;99.90;;;;;;5051892;28;20044;-78
2021/11/23 08:55:57;;;;;;;6.82;3.20;;;8.20;99.90;;;;;;5051331;28;20082;-78
2021/11/23 08:58:23;;;;;;;9.77;2.90;;;8.40;99.90;;;;;;5049814;28;20053;-78
2021/11/23 09:00:49;;;;;;;14.55;3.42;;;8.40;99.90;;;;;;5051296;28;20108;-77
2021/11/23 09:03:15;;;;;;;5.63;3.92;;;9.50;99.90;;;;;;5049945;28;20429;-77
2021/11/23 09:05:40;;;;;;;6.22;2.80;;;8.60;99.90;;;;;;5050564;28;21322;-78
2021/11/23 09:08:06;;;;;;;10.38;2.72;;;8.70;99.90;;;;;;5050595;28;20381;-76
2021/11/23 09:10:36;;;;;;;5.85;2.67;;;8.70;99.90;;;;;;5051777;28;20436;-79
2021/11/23 09:13:03;;;;;;;11.53;2.73;;;8.80;99.90;;;;;;5050983;28;20066;-78
2021/11/23 09:15:29;;;;;;;9.23;2.85;;;8.80;99.90;;;;;;5051062;28;20159;-78
2021/11/23 09:17:58;;;;;;;9.15;2.90;;;8.80;99.90;;;;;;5049960;28;20052;-78
2021/11/23 09:20:26;;;;;;;8.65;2.80;;;9.00;99.90;;;;;;5051185;28;20025;-79
2021/11/23 09:22:51;;;;;;;4.05;2.47;;;9.00;99.90;;;;;;5051349;28;20075;-81
2021/11/23 09:25:20;;;;;;;9.20;2.65;;;8.90;99.90;;;;;;5054934;28;20029;-79
2021/11/23 09:27:46;;;;;;;11.32;3.03;;;8.90;99.90;;;;;;5057859;28;20029;-79
2021/11/23 09:30:14;;;;;;;11.25;3.42;;;8.90;99.90;;;;;;5060306;28;20078;-79
2021/11/23 09:32:40;;;;;;;8.15;3.35;;;8.90;99.90;;;;;;5052325;28;20393;-80
2021/11/23 09:35:06;;;;;;;7.43;3.28;;;8.90;99.90;;;;;;5052102;28;20025;-79
2021/11/23 09:37:31;;;;;;;5.00;2.70;;;8.90;99.90;;;;;;5050556;28;20511;-80
2021/11/23 09:39:57;;;;;;;9.90;4.32;;;8.90;99.90;;;;;;5050650;28;20028;-80
2021/11/23 09:42:23;;;;;;;8.70;3.25;;;8.80;99.90;;;;;;5052337;28;20139;-80
2021/11/23 09:44:50;;;;;;;6.22;2.80;;;8.90;99.90;;;;;;5052914;28;20017;-79
2021/11/23 09:47:16;;;;;;;5.13;3.03;;;8.90;99.90;;;;;;5052139;28;20029;-80
2021/11/23 09:49:41;;;;;;;7.05;4.03;;;8.90;99.90;;;;;;5052570;28;20091;-81
2021/11/23 09:52:07;;;;;;;4.28;3.15;;;9.00;99.90;;;;;;5052869;28;20465;-80
2021/11/23 09:54:33;;;;;;;6.35;3.03;;;9.00;99.90;;;;;;5052708;28;20021;-80
2021/11/23 09:56:59;;;;;;;8.95;3.42;;;9.00;99.90;;;;;;5052987;28;20052;-79
2021/11/23 09:59:25;;;;;;;5.80;3.17;;;9.10;99.90;;;;;;5053535;28;20369;-80
2021/11/23 10:01:59;;;;;;;6.32;3.30;;;9.10;99.90;;;;;;5052803;28;20021;-80
2021/11/23 10:04:27;;;;;;;10.48;3.50;;;9.10;99.90;;;;;;5052737;28;20040;-79
2021/11/23 10:06:56;;;;;;;5.30;3.72;;;9.20;99.90;;;;;;5052945;28;20029;-80
2021/11/23 10:09:38;;;;;;;10.98;3.65;;;9.30;99.90;;;;;;5051919;28;20048;-80
2021/11/23 10:12:15;;;;;;;6.13;3.90;;;9.30;99.90;;;;;;5055639;28;20043;-80
2021/11/23 10:15:07;;;;;;;8.98;4.13;;;9.30;99.90;;;;;;5056182;28;20017;-80
2021/11/23 10:17:33;;;;;;;10.40;3.92;;;9.40;99.90;;;;;;5057482;28;20028;-81
2021/11/23 10:19:58;;;;;;;10.70;3.67;;;9.40;99.90;;;;;;5056437;28;20021;-78
2021/11/23 10:22:33;;;;;;;14.30;5.57;;;9.60;99.90;;;;;;5056593;28;20024;-80
2021/11/23 10:25:04;;;;;;;9.35;4.05;;;9.60;99.90;;;;;;5057545;28;20023;-80
2021/11/23 10:27:32;;;;;;;8.32;4.00;;;9.80;99.90;;;;;;5056659;28;20075;-80
2021/11/23 10:30:00;;;;;;;10.07;3.88;;;9.80;99.90;;;;;;5056398;28;20021;-79
2021/11/23 10:32:26;;;;;;;10.60;3.60;;;9.80;99.90;;;;;;5056567;28;20041;-79
2021/11/23 10:34:52;;;;;;;7.30;3.55;;;9.90;99.90;;;;;;5056474;28;20025;-81
2021/11/23 10:37:31;;;;;;;5.30;3.28;;;9.90;99.90;;;;;;5055427;28;20025;-79
2021/11/23 10:40:18;;;;;;;9.88;3.90;;;10.00;99.90;;;;;;5055589;28;20025;-80
2021/11/23 10:42:49;;;;;;;12.38;3.45;;;10.10;99.90;;;;;;5054512;28;20063;-81
2021/11/23 10:45:15;;;;;;;7.78;3.42;;;10.10;99.90;;;;;;5055157;28;20025;-80
2021/11/23 10:47:43;;;;;;;5.15;3.35;;;10.10;99.90;;;;;;5055661;28;20021;-80
2021/11/23 10:50:11;;;;;;;10.93;3.50;;;10.20;99.90;;;;;;5055637;28;20561;-81
2021/11/23 10:52:40;;;;;;;12.63;3.08;;;10.30;99.90;;;;;;5056947;28;20040;-80
2021/11/23 10:55:25;;;;;;;13.18;2.97;;;10.30;99.90;;;;;;5056503;28;20342;-79
2021/11/23 10:57:53;;;;;;;8.82;3.40;;;10.30;99.90;;;;;;5056708;28;20035;-80
2021/11/23 11:00:24;;;;;;;5.00;2.58;;;10.30;99.90;;;;;;5056530;28;20021;-81
2021/11/23 11:02:52;;;;;;;8.50;3.17;;;10.30;99.90;;;;;;5056178;28;20083;-81
2021/11/23 11:05:19;;;;;;;6.63;2.80;;;10.30;99.90;;;;;;5055439;28;20127;-80
2021/11/23 11:07:46;;;;;;;6.72;2.88;;;10.30;99.90;;;;;;5056796;28;20025;-80
2021/11/23 11:10:13;;;;;;;7.85;3.13;;;10.30;99.90;;;;;;5058909;28;20021;-79
2021/11/23 11:12:40;;;;;;;6.10;3.08;;;10.40;99.90;;;;;;5058667;28;20044;-80
2021/11/23 11:15:10;;;;;;;6.43;2.70;;;10.40;99.90;;;;;;5041722;28;20036;-79
2021/11/23 11:17:37;;;;;;;8.13;2.63;;;10.40;99.90;;;;;;5039270;28;20033;-80
2021/11/23 11:20:05;;;;;;;7.75;3.08;;;10.40;99.90;;;;;;5047593;28;20037;-80
2021/11/23 11:22:31;;;;;;;8.68;3.10;;;10.50;99.90;;;;;;5054860;28;20053;-79
2021/11/23 11:25:14;;;;;;;9.40;2.65;;;10.50;99.90;;;;;;5054649;28;20432;-80
2021/11/23 11:27:44;;;;;;;10.63;2.70;;;10.50;99.90;;;;;;5054974;28;20112;-79
2021/11/23 11:30:33;;;;;;;3.63;2.30;;;10.60;99.90;;;;;;5054687;28;20148;-81
2021/11/23 11:33:04;;;;;;;5.60;2.03;;;10.70;99.90;;;;;;5053900;28;20041;-79
2021/11/23 11:35:31;;;;;;;4.18;2.40;;;10.70;99.90;;;;;;5054608;28;20035;-79
2021/11/23 11:38:03;;;;;;;8.20;2.05;;;10.70;99.90;;;;;;5056573;28;20404;-79
2021/11/23 11:40:39;;;;;;;4.15;3.05;;;10.70;99.90;;;;;;5046071;28;20030;-79
2021/11/23 11:43:07;;;;;;;12.65;5.63;;;10.80;99.90;;;;;;5046406;28;20021;-79
2021/11/23 11:45:51;;;;;;;3.47;1.75;;;10.80;99.90;;;;;;5053845;28;20108;-79
2021/11/23 11:48:36;;;;;;;13.95;5.70;;;10.80;99.90;;;;;;5047680;28;20086;-77
2021/11/23 11:51:02;;;;;;;24.23;10.10;;;10.90;99.90;;;;;;5050198;28;20036;-79
2021/11/23 11:53:49;;;;;;;9.00;3.65;;;10.90;99.90;;;;;;5054266;28;20037;-78
2021/11/23 11:56:34;;;;;;;10.35;5.40;;;10.80;99.90;;;;;;5050469;28;20074;-79
2021/11/23 11:59:01;;;;;;;14.07;3.05;;;10.90;99.90;;;;;;5053369;28;20017;-74
2021/11/23 12:01:37;;;;;;;6.43;2.67;;;10.90;99.90;;;;;;5052706;28;20642;-78
2021/11/23 12:04:06;;;;;;;16.33;5.47;;;10.90;99.90;;;;;;5052972;28;20048;-74
2021/11/23 12:06:53;;;;;;;10.55;5.38;;;11.00;99.90;;;;;;5055231;28;20045;-77
2021/11/23 12:09:26;;;;;;;10.05;5.10;;;10.90;99.90;;;;;;5054295;28;20075;-79
2021/11/23 12:11:55;;;;;;;8.40;2.67;;;10.90;99.90;;;;;;5052956;28;20032;-79
2021/11/23 12:14:31;;;;;;;7.25;2.72;;;10.90;99.90;;;;;;5050156;28;20109;-78
2021/11/23 12:17:11;;;;;;;7.97;6.07;;;10.90;99.90;;;;;;5053004;28;20126;-77
2021/11/23 12:19:56;;;;;;;8.63;2.13;;;10.90;99.90;;;;;;5046999;28;20535;-79
2021/11/23 12:22:26;;;;;;;10.23;1.98;;;10.80;99.90;;;;;;5044116;28;20033;-77
2021/11/23 12:24:53;;;;;;;5.68;3.22;;;10.80;99.90;;;;;;5053953;28;20017;-77
2021/11/23 12:27:19;;;;;;;8.15;2.05;;;10.90;99.90;;;;;;5042860;28;20033;-76
2021/11/23 12:29:48;;;;;;;12.95;1.70;;;10.90;99.90;;;;;;5032645;28;20120;-76
2021/11/23 12:32:16;;;;;;;10.27;3.10;;;10.90;99.90;;;;;;5035239;28;20040;-78
2021/11/23 12:34:54;;;;;;;7.20;1.83;;;10.90;99.90;;;;;;5033411;28;20385;-78
2021/11/23 12:37:34;;;;;;;4.43;1.92;;;10.90;99.90;;;;;;5048331;28;20095;-76
2021/11/23 12:40:11;;;;;;;4.82;1.70;;;10.90;99.90;;;;;;5052943;28;20028;-75
2021/11/23 12:42:51;;;;;;;4.15;1.58;;;10.90;99.90;;;;;;5052157;28;20033;-76
2021/11/23 12:45:17;;;;;;;3.60;1.42;;;10.90;99.90;;;;;;5052758;28;20021;-75
2021/11/23 12:47:50;;;;;;;5.60;1.70;;;10.90;99.90;;;;;;5052937;28;20036;-75
2021/11/23 12:50:17;;;;;;;7.82;1.60;;;10.80;99.90;;;;;;5042865;28;20021;-76
2021/11/23 12:52:45;;;;;;;6.97;2.63;;;10.80;99.90;;;;;;5035987;28;20044;-76
2021/11/23 12:55:15;;;;;;;6.45;1.30;;;10.80;99.90;;;;;;5044192;28;20025;-76